Terminal Aerodrome Forecast
Issued by NWS

Home | Current Version | Previous Version | Text Only | Print | Product List | Glossary On
Versions: 1 2 3 4 5 6 7 8 9 10 11 12 13 14 15 16 17 18 19 20 21 22 23 24 25 26 27 28 29 30 31 32 33
000
FTUS46 KLOX 282300
TAFLAX
TAF
KLAX 282336Z 2900/3006 26008KT P6SM FEW005 SCT250
     FM290300 VRB03KT P6SM SCT005 SCT250
     FM290700 VRB03KT 5SM BR BKN007
     FM291000 VRB03KT 1 1/2SM BR OVC003
     FM291500 VRB03KT 2SM BR BKN006
     FM291700 23006KT 4SM HZ BKN250
     FM292000 25010KT P6SM SCT250
     FM300400 24006KT P6SM SCT250=

USA.gov is the U.S. government's official web portal to all federal, state and local government web resources and services.